Nevsehir Kapadokya International Airport Nevsehir TR
ICAO: LTAZ
IATA: NAV
Category: Large
Scheduled Services: No

Elevation: 3100 ft
TransAlt. 10000 ft.

Airport Communications:
ESENBOGA APP:119.1
TWR:35.892
TWR:119

LTAZ Zoom In..

If you have problems with the map follow the link
https://www.worldairports.se/pages/airport.php?
ICAO=LTAZ

Runways:

(A) RW 11 length 9843 ft width 148 ft
ILS 110.70 / hdg 113

(B) RW 29 length 9843 ft width 148 ft
---- / hdg 293

Location; LTAZ
Day. 18 / Time. 05.20 Zulu
* QNH: 1014
* Temperature: 18° c. 64.4°f.
* Wind from: VRB° Speed 02 kn.
Dewpoint: 16° c.
Visibility: 10 km or more.
Clouds: Scattered 4000 ft.
Clouds: Broken 1000 ft.

LTAZ 180520Z VRB02KT 9999 SCT040 BKN100 18/16 Q1014


Wind From VRB°
Speed 02 kn.

 
 
jpsmedia.com for Web Design worldairports.se 2019   terms of use